Time;durP1;ratioP1;P1;durP2;ratioP2;P2;SDS_P1;SDS_P2;PMS_P1;PMS_P2;Temp;Humidity;BMP_temperature;BMP_pressure;BME280_temperature;BME280_humidity;BME280_pressure;Samples;Min_cycle;Max_cycle;Signal;HPM_P1;HPM_P2
2021/12/06 00:00:58;;;;;;;1999.90;310.57;;;2.50;99.90;;;;;;4918725;29;20439;-76
2021/12/06 00:03:36;;;;;;;1999.90;249.57;;;2.50;99.90;;;;;;4901712;29;20483;-75
2021/12/06 00:06:05;;;;;;;1999.90;574.17;;;2.60;99.90;;;;;;4918940;29;20442;-76
2021/12/06 00:08:35;;;;;;;1999.90;770.50;;;2.50;99.90;;;;;;4901623;29;20453;-76
2021/12/06 00:11:07;;;;;;;1999.90;999.90;;;2.50;99.90;;;;;;4901699;29;20826;-76
2021/12/06 00:13:37;;;;;;;1999.90;302.37;;;2.60;99.90;;;;;;4901390;29;20596;-76
2021/12/06 00:16:09;;;;;;;1999.90;750.13;;;2.50;99.90;;;;;;4901458;29;20548;-76
2021/12/06 00:18:39;;;;;;;1999.90;368.07;;;2.50;99.90;;;;;;4918922;29;20519;-76
2021/12/06 00:21:08;;;;;;;1999.90;329.97;;;2.50;99.90;;;;;;4901127;29;20547;-76
2021/12/06 00:23:37;;;;;;;1999.90;253.67;;;2.50;99.90;;;;;;4901348;29;20471;-76
2021/12/06 00:26:08;;;;;;;1999.90;393.80;;;2.50;99.90;;;;;;4901691;29;20496;-76
2021/12/06 00:28:37;;;;;;;1999.90;536.27;;;2.50;99.90;;;;;;4901419;29;20547;-76
2021/12/06 00:31:06;;;;;;;1999.90;254.87;;;2.50;99.90;;;;;;4901414;29;20817;-76
2021/12/06 00:33:34;;;;;;;1099.20;299.67;;;2.50;99.90;;;;;;4901096;29;20494;-76
2021/12/06 00:36:07;;;;;;;1999.90;274.53;;;2.50;99.90;;;;;;4901146;29;20463;-76
2021/12/06 00:38:38;;;;;;;1999.90;329.70;;;2.50;99.90;;;;;;4901066;29;20453;-76
2021/12/06 00:41:06;;;;;;;1999.90;524.60;;;2.50;99.90;;;;;;4902211;29;20551;-76
2021/12/06 00:43:35;;;;;;;1999.90;530.80;;;2.50;99.90;;;;;;4900956;29;20469;-76
2021/12/06 00:46:04;;;;;;;1187.10;321.33;;;2.50;99.90;;;;;;4901088;29;20492;-76
2021/12/06 00:48:32;;;;;;;1999.90;269.40;;;2.50;99.90;;;;;;4917895;29;20447;-76
2021/12/06 00:51:00;;;;;;;1550.97;315.77;;;2.60;99.90;;;;;;4917937;29;20453;-76
2021/12/06 00:53:30;;;;;;;1951.30;383.70;;;2.50;99.90;;;;;;4917727;29;20484;-76
2021/12/06 00:55:59;;;;;;;1221.93;303.50;;;2.60;99.90;;;;;;4901001;29;20439;-76
2021/12/06 00:58:27;;;;;;;951.53;269.30;;;2.50;99.90;;;;;;4901710;29;20460;-74
2021/12/06 01:00:56;;;;;;;1999.90;757.07;;;2.60;99.90;;;;;;4901110;29;20449;-74
2021/12/06 01:03:29;;;;;;;1999.90;509.13;;;2.60;99.90;;;;;;4900758;29;20587;-74
2021/12/06 01:05:58;;;;;;;1331.27;302.73;;;2.60;99.90;;;;;;4900902;29;20535;-74
2021/12/06 01:08:26;;;;;;;1582.73;350.57;;;2.60;99.90;;;;;;4900759;29;20551;-74
2021/12/06 01:10:57;;;;;;;1999.90;999.90;;;2.60;99.90;;;;;;4900827;29;20452;-74
2021/12/06 01:13:26;;;;;;;1890.77;542.37;;;2.60;99.90;;;;;;4900468;29;20492;-74
2021/12/06 01:15:55;;;;;;;1999.90;766.40;;;2.60;99.90;;;;;;4900782;29;20527;-74
2021/12/06 01:18:26;;;;;;;1918.53;388.43;;;2.60;99.90;;;;;;4900718;29;20591;-74
2021/12/06 01:21:04;;;;;;;1545.63;382.27;;;2.60;99.90;;;;;;4900753;29;20450;-74
2021/12/06 01:23:45;;;;;;;1999.90;278.60;;;2.60;99.90;;;;;;4917798;29;20472;-74
2021/12/06 01:26:35;;;;;;;1999.90;408.17;;;2.60;99.90;;;;;;4900483;29;20437;-74
2021/12/06 01:29:43;;;;;;;1999.90;464.60;;;2.60;99.90;;;;;;4900528;29;20875;-74
2021/12/06 01:32:36;;;;;;;1999.90;374.07;;;2.50;99.90;;;;;;4900643;29;20481;-74
2021/12/06 01:40:39;;;;;;;1999.90;438.73;;;2.50;99.90;;;;;;4884655;29;20446;-74
2021/12/06 01:43:10;;;;;;;1602.67;396.07;;;2.50;99.90;;;;;;4900676;29;20531;-74
2021/12/06 01:45:38;;;;;;;1170.00;316.77;;;2.50;99.90;;;;;;4900275;29;20967;-74
2021/12/06 01:48:09;;;;;;;1173.70;310.80;;;2.50;99.90;;;;;;4900543;29;20456;-74
2021/12/06 01:50:38;;;;;;;1999.90;407.67;;;2.50;99.90;;;;;;4900260;29;20531;-74
2021/12/06 01:53:06;;;;;;;1948.07;405.73;;;2.50;99.90;;;;;;4917101;29;20484;-74
2021/12/06 01:55:39;;;;;;;1999.90;525.00;;;2.50;99.90;;;;;;4900275;29;20452;-74
2021/12/06 01:58:11;;;;;;;1948.80;356.20;;;2.50;99.90;;;;;;4901103;29;20867;-74
2021/12/06 02:00:42;;;;;;;1999.90;321.57;;;2.50;99.90;;;;;;4904477;29;20500;-74
2021/12/06 02:03:16;;;;;;;1999.90;341.90;;;2.50;99.90;;;;;;4904102;29;20475;-74
2021/12/06 02:05:48;;;;;;;1528.47;324.83;;;2.40;99.90;;;;;;4903953;29;20488;-74
2021/12/06 02:08:21;;;;;;;1971.77;390.30;;;2.40;99.90;;;;;;4904072;29;20460;-74
2021/12/06 02:10:49;;;;;;;1999.90;328.63;;;2.50;99.90;;;;;;4903895;29;20456;-74
2021/12/06 02:13:22;;;;;;;1999.90;388.10;;;2.40;99.90;;;;;;4906774;29;20488;-74
2021/12/06 02:15:53;;;;;;;1317.20;306.20;;;2.50;99.90;;;;;;4903757;29;20983;-74
2021/12/06 02:18:41;;;;;;;1999.90;336.37;;;2.50;99.90;;;;;;4903941;29;20460;-74
2021/12/06 02:21:13;;;;;;;1937.97;375.93;;;2.50;99.90;;;;;;4904654;29;20452;-74
2021/12/06 02:23:42;;;;;;;1999.90;804.03;;;2.50;99.90;;;;;;4903667;29;20469;-74
2021/12/06 02:26:11;;;;;;;1999.90;358.07;;;2.50;99.90;;;;;;4904054;29;20461;-74
2021/12/06 02:28:40;;;;;;;1999.90;496.03;;;2.50;99.90;;;;;;4920587;29;20456;-74
2021/12/06 02:31:08;;;;;;;1999.90;411.60;;;2.50;99.90;;;;;;4903680;29;20478;-74
2021/12/06 02:33:37;;;;;;;1999.90;347.10;;;2.50;99.90;;;;;;4920565;29;20479;-74
2021/12/06 02:36:06;;;;;;;1684.70;366.50;;;2.50;99.90;;;;;;4903487;29;20460;-74
2021/12/06 02:38:36;;;;;;;1999.90;282.70;;;2.50;99.90;;;;;;4903599;29;20453;-74
2021/12/06 02:41:04;;;;;;;1999.90;808.20;;;2.50;99.90;;;;;;4903425;29;20478;-74
2021/12/06 02:43:34;;;;;;;1394.43;357.93;;;2.50;99.90;;;;;;4903336;29;20471;-74
2021/12/06 02:46:02;;;;;;;1999.90;999.90;;;2.50;99.90;;;;;;4903333;29;20810;-74
2021/12/06 02:48:30;;;;;;;1999.90;366.80;;;2.50;99.90;;;;;;4903153;29;20541;-74
2021/12/06 02:51:01;;;;;;;1999.90;610.83;;;2.60;99.90;;;;;;4903289;29;20469;-74
2021/12/06 02:53:33;;;;;;;1930.07;427.83;;;2.60;99.90;;;;;;4903146;29;20483;-74
2021/12/06 02:56:17;;;;;;;1944.57;419.23;;;2.60;99.90;;;;;;4903477;29;20452;-74
2021/12/06 02:58:56;;;;;;;1999.90;346.50;;;2.60;99.90;;;;;;4903386;29;20889;-74
2021/12/06 03:01:31;;;;;;;1976.20;425.23;;;2.60;99.90;;;;;;4903357;29;20458;-74
2021/12/06 03:04:01;;;;;;;1999.90;405.80;;;2.60;99.90;;;;;;4902922;29;20592;-74
2021/12/06 03:06:31;;;;;;;1999.90;408.07;;;2.60;99.90;;;;;;4903140;29;20524;-74
2021/12/06 03:09:06;;;;;;;1999.90;449.17;;;2.60;99.90;;;;;;4903954;29;20484;-74
2021/12/06 03:11:39;;;;;;;1999.90;902.90;;;2.50;99.90;;;;;;4901705;29;20547;-74
2021/12/06 03:14:08;;;;;;;1999.90;554.63;;;2.60;99.90;;;;;;4902876;29;20482;-74
2021/12/06 03:16:37;;;;;;;1999.90;321.60;;;2.50;99.90;;;;;;4902838;29;20809;-74
2021/12/06 03:19:07;;;;;;;1771.30;375.63;;;2.50;99.90;;;;;;4902727;29;20518;-74
2021/12/06 03:21:35;;;;;;;1999.90;274.27;;;2.50;99.90;;;;;;4902696;29;20465;-74
2021/12/06 03:24:05;;;;;;;1999.90;999.90;;;2.50;99.90;;;;;;4902559;29;20515;-74
2021/12/06 03:26:37;;;;;;;1999.90;617.50;;;2.50;99.90;;;;;;4902722;29;20443;-74
2021/12/06 03:29:06;;;;;;;1999.90;453.33;;;2.50;99.90;;;;;;4902461;29;20465;-74
2021/12/06 03:31:36;;;;;;;1999.90;593.13;;;2.50;99.90;;;;;;4902630;29;20863;-74
2021/12/06 03:34:09;;;;;;;1999.90;529.10;;;2.50;99.90;;;;;;4902235;29;20483;-74
2021/12/06 03:36:39;;;;;;;1819.80;390.87;;;2.50;99.90;;;;;;4903401;29;20469;-74
2021/12/06 03:39:14;;;;;;;1999.90;999.90;;;2.50;99.90;;;;;;4902364;29;20489;-74
2021/12/06 03:41:44;;;;;;;1575.97;353.50;;;2.50;99.90;;;;;;4902561;29;20484;-74
2021/12/06 03:44:13;;;;;;;1999.90;359.10;;;2.50;99.90;;;;;;4902288;29;20536;-74
2021/12/06 03:46:42;;;;;;;1999.90;331.97;;;2.50;99.90;;;;;;4902222;29;21029;-74
2021/12/06 03:49:12;;;;;;;1989.53;481.53;;;2.50;99.90;;;;;;4902826;29;20807;-74
2021/12/06 03:51:43;;;;;;;1999.90;999.90;;;2.50;99.90;;;;;;4902336;29;20513;-74
2021/12/06 03:54:13;;;;;;;1999.90;462.47;;;2.60;99.90;;;;;;4902210;29;20477;-74
2021/12/06 03:56:44;;;;;;;1999.90;402.13;;;2.50;99.90;;;;;;4902220;29;20464;-74
2021/12/06 03:59:14;;;;;;;1999.90;434.53;;;2.50;99.90;;;;;;4918969;29;20992;-74
2021/12/06 04:01:43;;;;;;;1999.90;400.20;;;2.50;99.90;;;;;;4919269;29;20499;-74
2021/12/06 04:04:12;;;;;;;1999.90;386.73;;;2.50;99.90;;;;;;4901912;29;20527;-74
2021/12/06 04:06:42;;;;;;;1999.90;447.63;;;2.50;99.90;;;;;;4901882;29;20471;-74
2021/12/06 04:09:11;;;;;;;1999.90;301.83;;;2.50;99.90;;;;;;4901886;29;20452;-74
2021/12/06 04:11:42;;;;;;;1999.90;460.67;;;2.50;99.90;;;;;;4901813;29;20448;-74
2021/12/06 04:14:13;;;;;;;1999.90;477.53;;;2.50;99.90;;;;;;4901895;29;20483;-74
2021/12/06 04:16:42;;;;;;;1999.90;369.77;;;2.60;99.90;;;;;;4901826;29;20547;-74
2021/12/06 04:19:12;;;;;;;1999.90;315.93;;;2.50;99.90;;;;;;4901861;29;20455;-74
2021/12/06 04:21:42;;;;;;;1999.90;488.80;;;2.50;99.90;;;;;;4901095;29;20549;-74
2021/12/06 04:24:12;;;;;;;1999.23;252.30;;;2.50;99.90;;;;;;4901532;29;20544;-74
2021/12/06 04:26:42;;;;;;;1999.90;558.10;;;2.50;99.90;;;;;;4901617;29;20567;-74
2021/12/06 04:29:13;;;;;;;1999.90;656.93;;;2.50;99.90;;;;;;4901462;29;20847;-74
2021/12/06 04:31:48;;;;;;;1999.90;468.47;;;2.50;99.90;;;;;;4901533;29;20464;-74
2021/12/06 04:34:18;;;;;;;1999.90;449.97;;;2.50;99.90;;;;;;4901269;29;20477;-74
2021/12/06 04:36:48;;;;;;;1999.90;755.43;;;2.50;99.90;;;;;;4901652;29;20843;-74
2021/12/06 04:39:19;;;;;;;1999.90;427.80;;;2.40;99.90;;;;;;4901436;29;20876;-74
2021/12/06 04:41:49;;;;;;;1999.90;509.43;;;2.40;99.90;;;;;;4901349;29;20450;-74
2021/12/06 04:44:19;;;;;;;1999.90;526.03;;;2.40;99.90;;;;;;4901511;29;20468;-74
2021/12/06 04:46:48;;;;;;;1999.90;457.80;;;2.40;99.90;;;;;;4901052;29;21044;-75
2021/12/06 04:49:18;;;;;;;1957.80;455.70;;;2.40;99.90;;;;;;4900895;29;20975;-76
2021/12/06 04:51:50;;;;;;;1999.90;411.23;;;2.40;99.90;;;;;;4900903;29;20469;-76
2021/12/06 04:54:22;;;;;;;1999.90;474.87;;;2.40;99.90;;;;;;4900758;29;20481;-76
2021/12/06 04:56:54;;;;;;;1999.90;493.43;;;2.40;99.90;;;;;;4900931;29;20540;-76
2021/12/06 04:59:29;;;;;;;1999.90;556.80;;;2.40;99.90;;;;;;4901103;29;20802;-76
2021/12/06 05:02:01;;;;;;;1999.90;495.00;;;2.40;99.90;;;;;;4900844;29;20452;-76
2021/12/06 05:04:34;;;;;;;1999.90;478.00;;;2.40;99.90;;;;;;4900790;29;20482;-76
2021/12/06 05:07:11;;;;;;;1999.90;771.13;;;2.40;99.90;;;;;;4900802;29;20453;-76
2021/12/06 05:09:42;;;;;;;1999.90;520.50;;;2.30;99.90;;;;;;4901177;29;20468;-76
2021/12/06 05:12:15;;;;;;;1999.90;693.93;;;2.30;99.90;;;;;;4900834;29;20555;-76
2021/12/06 05:14:45;;;;;;;1999.90;493.73;;;2.30;99.90;;;;;;4900479;29;20501;-76
2021/12/06 05:17:14;;;;;;;1999.90;468.20;;;2.40;99.90;;;;;;4901373;29;20883;-76
2021/12/06 05:19:43;;;;;;;1999.90;501.43;;;2.30;99.90;;;;;;4900436;29;20491;-76
2021/12/06 05:22:11;;;;;;;1999.90;486.03;;;2.30;99.90;;;;;;4900221;29;20460;-76
2021/12/06 05:24:40;;;;;;;1999.90;522.07;;;2.30;99.90;;;;;;4900474;29;20484;-76
2021/12/06 05:27:08;;;;;;;1998.37;434.77;;;2.30;99.90;;;;;;4900354;29;20455;-76
2021/12/06 05:29:43;;;;;;;1948.20;444.07;;;2.40;99.90;;;;;;4900894;29;20449;-76
2021/12/06 05:32:15;;;;;;;1999.90;511.53;;;2.30;99.90;;;;;;4917557;29;20425;-76
2021/12/06 05:34:44;;;;;;;1999.90;412.87;;;2.40;99.90;;;;;;4899524;29;20515;-76
2021/12/06 05:37:14;;;;;;;1999.90;381.57;;;2.30;99.90;;;;;;4917388;29;20451;-76
2021/12/06 05:39:42;;;;;;;1999.90;730.80;;;2.40;99.90;;;;;;4900160;29;20548;-76
2021/12/06 05:42:14;;;;;;;1999.90;891.30;;;2.30;99.90;;;;;;4917125;29;20444;-76
2021/12/06 05:44:42;;;;;;;1999.90;590.03;;;2.40;99.90;;;;;;4917344;29;20509;-76
2021/12/06 05:47:11;;;;;;;1974.50;369.23;;;2.40;99.90;;;;;;4917035;29;20437;-76
2021/12/06 05:49:41;;;;;;;1999.90;375.73;;;2.40;99.90;;;;;;4900066;29;20462;-76
2021/12/06 05:52:09;;;;;;;1999.90;458.93;;;2.40;99.90;;;;;;4900303;29;20960;-76
2021/12/06 05:54:38;;;;;;;1999.90;526.53;;;2.30;99.90;;;;;;4899856;29;20926;-76
2021/12/06 05:57:07;;;;;;;1999.90;530.40;;;2.40;99.90;;;;;;4917207;29;20445;-76
2021/12/06 05:59:35;;;;;;;1934.83;372.17;;;2.40;99.90;;;;;;4899849;29;20912;-76
2021/12/06 06:02:06;;;;;;;1992.90;320.57;;;2.40;99.90;;;;;;4899963;29;20456;-76
2021/12/06 06:04:35;;;;;;;1951.17;299.83;;;2.30;99.90;;;;;;4899919;29;20984;-76
2021/12/06 06:07:06;;;;;;;1999.90;445.20;;;2.40;99.90;;;;;;4899982;29;20452;-76
2021/12/06 06:09:34;;;;;;;1999.90;436.33;;;2.30;99.90;;;;;;4899837;29;20854;-76
2021/12/06 06:12:04;;;;;;;1999.90;486.07;;;2.40;99.90;;;;;;4899855;29;20456;-76
2021/12/06 06:14:33;;;;;;;1999.90;459.17;;;2.30;99.90;;;;;;4917015;29;20472;-76
2021/12/06 06:17:08;;;;;;;1999.90;527.80;;;2.30;99.90;;;;;;4899846;29;20480;-76
2021/12/06 06:19:38;;;;;;;1999.90;443.70;;;2.30;99.90;;;;;;4899834;29;20475;-76
2021/12/06 06:22:08;;;;;;;1999.90;490.43;;;2.30;99.90;;;;;;4899603;29;20468;-76
2021/12/06 06:24:36;;;;;;;1999.90;548.93;;;2.30;99.90;;;;;;4899715;29;20468;-76
2021/12/06 06:27:05;;;;;;;1999.90;524.67;;;2.30;99.90;;;;;;4899829;29;20456;-76
2021/12/06 06:29:34;;;;;;;1999.90;541.50;;;2.30;99.90;;;;;;4916671;29;20484;-76
2021/12/06 06:32:03;;;;;;;1999.90;485.20;;;2.30;99.90;;;;;;4916850;29;20470;-76
2021/12/06 06:34:32;;;;;;;1957.13;428.63;;;2.30;99.90;;;;;;4899602;29;20508;-76
2021/12/06 06:37:01;;;;;;;1999.90;468.33;;;2.30;99.90;;;;;;4899690;29;20466;-76
2021/12/06 06:39:30;;;;;;;1999.90;536.73;;;2.30;99.90;;;;;;4916654;29;20564;-76
2021/12/06 06:41:59;;;;;;;1999.90;471.70;;;2.30;99.90;;;;;;4899656;29;20556;-76
2021/12/06 06:44:27;;;;;;;1999.90;542.50;;;2.30;99.90;;;;;;4899817;29;21010;-76
2021/12/06 06:46:55;;;;;;;1999.90;402.87;;;2.30;99.90;;;;;;4903258;29;20504;-76
2021/12/06 06:49:25;;;;;;;1999.90;390.20;;;2.30;99.90;;;;;;4903118;29;20457;-76
2021/12/06 06:51:53;;;;;;;1999.90;659.70;;;2.30;99.90;;;;;;4920053;29;20474;-76
2021/12/06 06:54:21;;;;;;;1999.90;447.90;;;2.30;99.90;;;;;;4919878;29;20471;-76
2021/12/06 06:56:50;;;;;;;1999.90;703.93;;;2.30;99.90;;;;;;4902965;29;20487;-76
2021/12/06 06:59:19;;;;;;;1943.40;405.90;;;2.30;99.90;;;;;;4920152;29;20447;-76
2021/12/06 07:01:47;;;;;;;1997.77;450.57;;;2.30;99.90;;;;;;4902880;29;20460;-76
2021/12/06 07:04:15;;;;;;;1999.90;484.27;;;2.30;99.90;;;;;;4902792;29;20894;-76
2021/12/06 07:06:44;;;;;;;1999.90;456.47;;;2.30;99.90;;;;;;4902860;29;20469;-76
2021/12/06 07:09:12;;;;;;;1999.90;705.83;;;2.30;99.90;;;;;;4902679;29;20974;-76
2021/12/06 07:11:44;;;;;;;1999.90;483.03;;;2.30;99.90;;;;;;4919750;29;20543;-76
2021/12/06 07:14:14;;;;;;;1999.90;443.00;;;2.30;99.90;;;;;;4903501;29;20517;-76
2021/12/06 07:16:44;;;;;;;1920.30;405.63;;;2.30;99.90;;;;;;4902558;29;20983;-76
2021/12/06 07:19:12;;;;;;;1999.90;437.20;;;2.30;99.90;;;;;;4902542;29;20456;-76
2021/12/06 07:21:56;;;;;;;1999.90;497.70;;;2.30;99.90;;;;;;4919572;29;20512;-76
2021/12/06 07:24:24;;;;;;;1999.90;561.10;;;2.30;99.90;;;;;;4902396;29;21081;-76
2021/12/06 07:26:52;;;;;;;1999.90;512.47;;;2.30;99.90;;;;;;4902469;29;20495;-76
2021/12/06 07:29:22;;;;;;;1999.90;585.97;;;2.30;99.90;;;;;;4902373;29;21054;-76
2021/12/06 07:31:51;;;;;;;1999.90;519.83;;;2.30;99.90;;;;;;4902681;29;20559;-76
2021/12/06 07:34:20;;;;;;;1999.90;723.50;;;2.30;99.90;;;;;;4903032;29;20478;-76
2021/12/06 07:36:48;;;;;;;1950.50;468.87;;;2.30;99.90;;;;;;4919389;29;20558;-76
2021/12/06 07:39:16;;;;;;;1999.90;405.93;;;2.30;99.90;;;;;;4902240;29;20814;-76
2021/12/06 07:41:50;;;;;;;1999.90;464.17;;;2.30;99.90;;;;;;4919454;29;20442;-76
2021/12/06 07:44:19;;;;;;;1999.90;412.03;;;2.30;99.90;;;;;;4902001;29;20480;-76
2021/12/06 07:46:51;;;;;;;1999.90;484.90;;;2.30;99.90;;;;;;4902062;29;20457;-76
2021/12/06 07:49:21;;;;;;;1999.90;684.97;;;2.30;99.90;;;;;;4919284;29;20448;-76
2021/12/06 07:51:50;;;;;;;1999.90;437.83;;;2.30;99.90;;;;;;4902316;29;21027;-76
2021/12/06 07:54:18;;;;;;;1999.90;506.33;;;2.30;99.90;;;;;;4901759;29;20565;-76
2021/12/06 07:56:47;;;;;;;1963.67;398.10;;;2.30;99.90;;;;;;4901162;29;20469;-76
2021/12/06 07:59:20;;;;;;;1999.90;535.80;;;2.40;99.90;;;;;;4901920;29;20448;-76
2021/12/06 08:01:50;;;;;;;1999.90;483.83;;;2.30;99.90;;;;;;4902137;29;20463;-76
2021/12/06 08:04:19;;;;;;;1999.90;802.63;;;2.30;99.90;;;;;;4901749;29;20480;-76
2021/12/06 08:06:47;;;;;;;1993.03;444.97;;;2.30;99.90;;;;;;4901902;29;20454;-74
2021/12/06 08:09:17;;;;;;;1999.90;436.47;;;2.30;99.90;;;;;;4902094;29;20449;-74
2021/12/06 08:11:49;;;;;;;1999.90;572.50;;;2.30;99.90;;;;;;4902159;29;20457;-73
2021/12/06 08:14:17;;;;;;;1999.90;516.67;;;2.30;99.90;;;;;;4901844;29;20559;-73
2021/12/06 08:16:45;;;;;;;1999.90;527.60;;;2.30;99.90;;;;;;4919522;29;20472;-73
2021/12/06 08:19:15;;;;;;;1999.90;496.53;;;2.40;99.90;;;;;;4901844;29;20458;-73
2021/12/06 08:21:43;;;;;;;1999.90;442.37;;;2.40;99.90;;;;;;4901982;29;20492;-73
2021/12/06 08:24:11;;;;;;;1999.90;879.60;;;2.40;99.90;;;;;;4919160;29;20472;-73
2021/12/06 08:26:42;;;;;;;1999.90;602.70;;;2.40;99.90;;;;;;4919049;29;20457;-73
2021/12/06 08:29:13;;;;;;;1999.90;483.60;;;2.40;99.90;;;;;;4901742;29;20903;-73
2021/12/06 08:31:44;;;;;;;1999.90;509.30;;;2.40;99.90;;;;;;4918792;29;20522;-73
2021/12/06 08:34:12;;;;;;;1999.90;519.47;;;2.40;99.90;;;;;;4901328;29;20511;-75
2021/12/06 08:36:42;;;;;;;1999.90;464.20;;;2.40;99.90;;;;;;4918300;29;20480;-76
2021/12/06 08:39:10;;;;;;;1999.90;385.93;;;2.40;99.90;;;;;;4901101;29;20562;-76
2021/12/06 08:41:39;;;;;;;1999.90;866.53;;;2.40;99.90;;;;;;4901088;29;20456;-76
2021/12/06 08:44:07;;;;;;;1999.90;726.40;;;2.40;99.90;;;;;;4900920;29;20476;-76
2021/12/06 08:46:38;;;;;;;1999.90;931.20;;;2.50;99.90;;;;;;4901055;29;20453;-76
2021/12/06 08:49:09;;;;;;;1999.90;497.03;;;2.50;99.90;;;;;;4900936;29;20863;-76
2021/12/06 08:51:40;;;;;;;1999.90;440.57;;;2.50;99.90;;;;;;4900932;29;20441;-76
2021/12/06 08:54:12;;;;;;;1999.90;762.57;;;2.50;99.90;;;;;;4917808;29;20461;-76
2021/12/06 08:56:41;;;;;;;1999.90;589.03;;;2.50;99.90;;;;;;4900826;29;20551;-76
2021/12/06 08:59:10;;;;;;;1999.90;497.87;;;2.50;99.90;;;;;;4917998;29;20457;-76
2021/12/06 09:01:39;;;;;;;1999.90;482.07;;;2.50;99.90;;;;;;4901838;29;20465;-76
2021/12/06 09:04:31;;;;;;;1999.90;608.53;;;2.50;99.90;;;;;;4917846;29;20476;-76
2021/12/06 09:07:00;;;;;;;1999.90;478.27;;;2.50;99.90;;;;;;4917881;29;20422;-76
2021/12/06 09:09:29;;;;;;;1999.90;404.93;;;2.50;99.90;;;;;;4917591;29;20437;-76
2021/12/06 09:11:58;;;;;;;1999.90;406.53;;;2.50;99.90;;;;;;4900586;29;20461;-76
2021/12/06 09:14:27;;;;;;;1999.90;581.60;;;2.60;99.90;;;;;;4917668;29;20576;-76
2021/12/06 09:16:56;;;;;;;1999.90;792.67;;;2.50;99.90;;;;;;4900432;29;20477;-76
2021/12/06 09:19:24;;;;;;;1999.90;493.07;;;2.60;99.90;;;;;;4900415;29;20460;-76
2021/12/06 09:21:52;;;;;;;1999.90;359.97;;;2.60;99.90;;;;;;4900291;29;20470;-76
2021/12/06 09:24:22;;;;;;;1999.90;463.77;;;2.60;99.90;;;;;;4900358;29;20555;-76
2021/12/06 09:26:52;;;;;;;1999.90;546.90;;;2.70;99.90;;;;;;4900869;29;20455;-76
2021/12/06 09:29:24;;;;;;;1999.90;314.33;;;2.70;99.90;;;;;;4900281;29;20508;-76
2021/12/06 09:31:53;;;;;;;1999.90;362.80;;;2.70;99.90;;;;;;4900297;29;20488;-76
2021/12/06 09:34:22;;;;;;;1999.90;386.33;;;2.70;99.90;;;;;;4900188;29;20573;-76
2021/12/06 09:36:53;;;;;;;1999.90;385.20;;;2.70;99.90;;;;;;4900121;29;20500;-76
2021/12/06 09:39:22;;;;;;;1999.90;896.20;;;2.80;99.90;;;;;;4917710;29;21012;-76
2021/12/06 09:41:53;;;;;;;1999.90;619.73;;;2.80;99.90;;;;;;4900169;29;20453;-76
2021/12/06 09:44:21;;;;;;;1999.90;779.00;;;2.80;99.90;;;;;;4900083;29;20567;-76
2021/12/06 09:46:49;;;;;;;1999.90;553.80;;;2.80;99.90;;;;;;4917079;29;20444;-76
2021/12/06 09:49:20;;;;;;;1999.90;493.73;;;2.80;99.90;;;;;;4917062;29;20536;-76
2021/12/06 09:51:52;;;;;;;1999.90;549.73;;;2.90;99.90;;;;;;4900133;29;20454;-76
2021/12/06 09:54:21;;;;;;;1999.90;999.90;;;2.90;99.90;;;;;;4899975;29;20572;-76
2021/12/06 09:56:55;;;;;;;1999.90;525.73;;;2.90;99.90;;;;;;4899941;29;20507;-76
2021/12/06 09:59:26;;;;;;;1999.90;757.20;;;3.00;99.90;;;;;;4900921;29;20511;-76
2021/12/06 10:01:59;;;;;;;1947.27;720.00;;;3.00;99.90;;;;;;4917548;29;20836;-76
2021/12/06 10:04:31;;;;;;;1999.90;812.20;;;3.00;99.90;;;;;;4916888;29;20832;-76
2021/12/06 10:07:00;;;;;;;1999.90;754.40;;;3.10;99.90;;;;;;4901081;29;20448;-76
2021/12/06 10:09:29;;;;;;;1999.90;463.33;;;3.10;99.90;;;;;;4916920;29;20435;-76
2021/12/06 10:12:00;;;;;;;1999.90;758.50;;;3.10;99.90;;;;;;4899902;29;20534;-76
2021/12/06 10:14:29;;;;;;;1999.90;814.93;;;3.10;99.90;;;;;;4917021;29;20842;-76
2021/12/06 10:16:59;;;;;;;1999.90;579.60;;;3.10;99.90;;;;;;4899807;29;20841;-76
2021/12/06 10:19:27;;;;;;;1999.90;795.60;;;3.10;99.90;;;;;;4917207;29;20426;-76
2021/12/06 10:21:56;;;;;;;1999.90;822.40;;;3.10;99.90;;;;;;4903452;29;20471;-76
2021/12/06 10:24:26;;;;;;;1999.90;729.30;;;3.20;99.90;;;;;;4920687;29;20850;-76
2021/12/06 10:27:07;;;;;;;1999.90;535.50;;;3.20;99.90;;;;;;4920484;29;20457;-76
2021/12/06 10:29:39;;;;;;;1999.90;270.20;;;3.20;99.90;;;;;;4920438;29;20435;-76
2021/12/06 10:32:13;;;;;;;1999.90;757.60;;;3.20;99.90;;;;;;4903965;29;20831;-76
2021/12/06 10:34:46;;;;;;;1999.90;327.97;;;3.20;99.90;;;;;;4920643;29;20436;-76
2021/12/06 10:37:34;;;;;;;1999.90;668.43;;;3.20;99.90;;;;;;4903304;29;20548;-76
2021/12/06 10:40:05;;;;;;;1999.90;342.33;;;3.20;99.90;;;;;;4903315;29;20982;-76
2021/12/06 10:42:37;;;;;;;1999.90;589.13;;;3.20;99.90;;;;;;4903175;29;20455;-76
2021/12/06 10:45:08;;;;;;;1999.90;729.73;;;3.20;99.90;;;;;;4903255;29;21033;-76
2021/12/06 10:47:37;;;;;;;1999.90;614.50;;;3.30;99.90;;;;;;4920114;29;20934;-76
2021/12/06 10:50:13;;;;;;;1999.90;716.53;;;3.30;99.90;;;;;;4903226;29;21056;-76
2021/12/06 10:52:53;;;;;;;1999.90;759.83;;;3.30;99.90;;;;;;4904095;29;20531;-76
2021/12/06 10:55:24;;;;;;;1999.90;706.23;;;3.30;99.90;;;;;;4903062;29;20546;-77
2021/12/06 10:57:57;;;;;;;1999.90;695.37;;;3.30;99.90;;;;;;4903176;29;20472;-75
2021/12/06 11:00:32;;;;;;;1999.90;777.93;;;3.30;99.90;;;;;;4903280;29;20984;-76
2021/12/06 11:03:01;;;;;;;1999.90;578.03;;;3.40;99.90;;;;;;4903015;29;20519;-76
2021/12/06 11:05:33;;;;;;;1999.90;639.33;;;3.30;99.90;;;;;;4903277;29;20457;-76
2021/12/06 11:08:14;;;;;;;1999.90;999.90;;;3.30;99.90;;;;;;4902792;29;21005;-77
2021/12/06 11:10:44;;;;;;;1999.90;730.13;;;3.30;99.90;;;;;;4902907;29;20471;-76
2021/12/06 11:13:23;;;;;;;1999.90;555.83;;;3.40;99.90;;;;;;4920436;29;20466;-76
2021/12/06 11:16:13;;;;;;;1999.90;453.97;;;3.40;99.90;;;;;;4902688;29;20441;-76
2021/12/06 11:18:50;;;;;;;1999.90;402.73;;;3.40;99.90;;;;;;4902640;29;20465;-76
2021/12/06 11:21:26;;;;;;;1999.90;770.40;;;3.40;99.90;;;;;;4902475;29;20552;-76
2021/12/06 11:24:04;;;;;;;1867.57;239.50;;;3.40;99.90;;;;;;4902435;29;20488;-76
2021/12/06 11:26:36;;;;;;;1999.90;674.83;;;3.40;99.90;;;;;;4919766;29;20436;-76
2021/12/06 11:29:10;;;;;;;1999.90;594.10;;;3.40;99.90;;;;;;4902473;29;20462;-76
2021/12/06 11:31:40;;;;;;;1999.90;755.00;;;3.40;99.90;;;;;;4918573;29;20435;-76
2021/12/06 11:34:09;;;;;;;1999.90;368.27;;;3.40;99.90;;;;;;4919183;29;20475;-76
2021/12/06 11:36:41;;;;;;;1999.90;879.87;;;3.40;99.90;;;;;;4919261;29;20831;-76
2021/12/06 11:39:13;;;;;;;1999.90;646.93;;;3.40;99.90;;;;;;4902244;29;20510;-76
2021/12/06 11:41:44;;;;;;;1999.90;896.07;;;3.40;99.90;;;;;;4902296;29;20482;-76
2021/12/06 11:44:17;;;;;;;1999.90;999.90;;;3.40;99.90;;;;;;4919393;29;20557;-76
2021/12/06 11:46:46;;;;;;;1999.90;509.67;;;3.50;99.90;;;;;;4903361;29;20558;-76
2021/12/06 11:49:20;;;;;;;1999.90;531.30;;;3.40;99.90;;;;;;4919578;29;20441;-76
2021/12/06 11:51:50;;;;;;;1999.90;735.67;;;3.50;99.90;;;;;;4919496;29;20428;-76
2021/12/06 11:54:19;;;;;;;1999.90;999.90;;;3.50;99.90;;;;;;4902629;29;20476;-76
2021/12/06 11:56:48;;;;;;;1999.90;631.53;;;3.50;99.90;;;;;;4901861;29;20460;-76
2021/12/06 11:59:19;;;;;;;1999.90;529.80;;;3.50;99.90;;;;;;4918684;29;20566;-76
2021/12/06 12:01:51;;;;;;;1999.90;588.03;;;3.50;99.90;;;;;;4901854;29;20449;-76
2021/12/06 12:04:22;;;;;;;1999.90;915.87;;;3.50;99.90;;;;;;4901747;29;20994;-76
2021/12/06 12:06:55;;;;;;;1999.90;488.03;;;3.50;99.90;;;;;;4918869;29;20431;-76
2021/12/06 12:09:25;;;;;;;1999.90;753.90;;;3.50;99.90;;;;;;4918699;29;20433;-76
2021/12/06 12:11:57;;;;;;;1999.90;383.57;;;3.50;99.90;;;;;;4918966;29;20787;-76
2021/12/06 12:14:37;;;;;;;1999.90;511.73;;;3.50;99.90;;;;;;4901256;29;20479;-76
2021/12/06 12:17:08;;;;;;;1999.90;744.30;;;3.50;99.90;;;;;;4901559;29;20450;-76
2021/12/06 12:19:39;;;;;;;1999.90;999.90;;;3.50;99.90;;;;;;4901539;29;20804;-76
2021/12/06 12:22:11;;;;;;;1999.90;661.70;;;3.50;99.90;;;;;;4901337;29;20839;-76
2021/12/06 12:24:46;;;;;;;1999.90;743.03;;;3.50;99.90;;;;;;4901501;29;20446;-76
2021/12/06 12:27:23;;;;;;;1999.90;780.87;;;3.50;99.90;;;;;;4901405;29;20462;-77
2021/12/06 12:29:56;;;;;;;1999.90;465.87;;;3.50;99.90;;;;;;4901271;29;20859;-76
2021/12/06 12:32:24;;;;;;;1999.90;644.57;;;3.50;99.90;;;;;;4900919;29;20444;-76